sensor_id;sensor_type;location;lat;lon;timestamp;pressure;altitude;pressure_sealevel;temperature;humidity
39275;BME280;24980;48.874;2.332;2024-01-07T00:02:34;101232.99;;;25.27;41.51
39275;BME280;24980;48.874;2.332;2024-01-07T00:04:59;101239.06;;;25.32;41.47
39275;BME280;24980;48.874;2.332;2024-01-07T00:07:29;101238.61;;;25.40;41.41
39275;BME280;24980;48.874;2.332;2024-01-07T00:09:59;101241.08;;;25.49;41.34
39275;BME280;24980;48.874;2.332;2024-01-07T00:12:29;101245.88;;;25.52;41.30
39275;BME280;24980;48.874;2.332;2024-01-07T00:14:59;101241.83;;;25.55;41.28
39275;BME280;24980;48.874;2.332;2024-01-07T00:17:29;101248.06;;;25.56;41.28
39275;BME280;24980;48.874;2.332;2024-01-07T00:20:01;101245.21;;;25.56;41.30
39275;BME280;24980;48.874;2.332;2024-01-07T00:22:30;101245.19;;;25.59;41.27
39275;BME280;24980;48.874;2.332;2024-01-07T00:25:00;101251.70;;;25.62;41.24
39275;BME280;24980;48.874;2.332;2024-01-07T00:27:30;101255.77;;;25.62;41.24
39275;BME280;24980;48.874;2.332;2024-01-07T00:30:00;101254.24;;;25.62;41.23
39275;BME280;24980;48.874;2.332;2024-01-07T00:32:30;101256.99;;;25.63;41.19
39275;BME280;24980;48.874;2.332;2024-01-07T00:35:01;101252.24;;;25.63;41.15
39275;BME280;24980;48.874;2.332;2024-01-07T00:37:34;101252.23;;;25.59;41.14
39275;BME280;24980;48.874;2.332;2024-01-07T00:40:02;101250.99;;;25.55;41.20
39275;BME280;24980;48.874;2.332;2024-01-07T00:42:32;101248.53;;;25.51;41.24
39275;BME280;24980;48.874;2.332;2024-01-07T00:45:03;101249.23;;;25.44;41.29
39275;BME280;24980;48.874;2.332;2024-01-07T00:47:33;101251.09;;;25.40;41.33
39275;BME280;24980;48.874;2.332;2024-01-07T00:50:03;101254.98;;;25.37;41.36
39275;BME280;24980;48.874;2.332;2024-01-07T00:52:36;101249.47;;;25.37;41.37
39275;BME280;24980;48.874;2.332;2024-01-07T00:55:05;101260.30;;;25.35;41.38
39275;BME280;24980;48.874;2.332;2024-01-07T00:57:34;101258.08;;;25.31;41.41
39275;BME280;24980;48.874;2.332;2024-01-07T01:00:05;101255.68;;;25.28;41.46
39275;BME280;24980;48.874;2.332;2024-01-07T01:02:36;101259.59;;;25.27;41.48
39275;BME280;24980;48.874;2.332;2024-01-07T01:05:06;101256.53;;;25.28;41.47
39275;BME280;24980;48.874;2.332;2024-01-07T01:07:36;101254.50;;;25.28;41.47
39275;BME280;24980;48.874;2.332;2024-01-07T01:10:07;101256.37;;;25.28;41.47
39275;BME280;24980;48.874;2.332;2024-01-07T01:12:37;101256.67;;;25.26;41.49
39275;BME280;24980;48.874;2.332;2024-01-07T01:15:07;101255.50;;;25.25;41.48
39275;BME280;24980;48.874;2.332;2024-01-07T01:17:40;101263.30;;;25.24;41.47
39275;BME280;24980;48.874;2.332;2024-01-07T01:20:09;101270.08;;;25.25;41.46
39275;BME280;24980;48.874;2.332;2024-01-07T01:22:38;101269.23;;;25.26;41.46
39275;BME280;24980;48.874;2.332;2024-01-07T01:25:11;101274.41;;;25.25;41.46
39275;BME280;24980;48.874;2.332;2024-01-07T01:27:39;101270.48;;;25.22;41.48
39275;BME280;24980;48.874;2.332;2024-01-07T01:30:10;101268.33;;;25.20;41.49
39275;BME280;24980;48.874;2.332;2024-01-07T01:32:40;101276.19;;;25.21;41.49
39275;BME280;24980;48.874;2.332;2024-01-07T01:35:10;101279.88;;;25.20;41.50
39275;BME280;24980;48.874;2.332;2024-01-07T01:37:41;101283.60;;;25.20;41.48
39275;BME280;24980;48.874;2.332;2024-01-07T01:40:11;101288.82;;;25.21;41.46
39275;BME280;24980;48.874;2.332;2024-01-07T01:42:43;101288.65;;;25.21;41.48
39275;BME280;24980;48.874;2.332;2024-01-07T01:45:11;101296.61;;;25.23;41.45
39275;BME280;24980;48.874;2.332;2024-01-07T01:47:42;101297.30;;;25.21;41.47
39275;BME280;24980;48.874;2.332;2024-01-07T01:50:12;101292.43;;;25.20;41.48
39275;BME280;24980;48.874;2.332;2024-01-07T01:52:44;101298.36;;;25.20;41.47
39275;BME280;24980;48.874;2.332;2024-01-07T01:55:14;101303.92;;;25.21;41.46
39275;BME280;24980;48.874;2.332;2024-01-07T01:57:47;101302.95;;;25.19;41.46
39275;BME280;24980;48.874;2.332;2024-01-07T02:00:15;101306.42;;;25.20;41.46
39275;BME280;24980;48.874;2.332;2024-01-07T02:02:45;101305.36;;;25.21;41.45
39275;BME280;24980;48.874;2.332;2024-01-07T02:05:16;101308.48;;;25.23;41.44
39275;BME280;24980;48.874;2.332;2024-01-07T02:07:47;101315.61;;;25.23;41.43
39275;BME280;24980;48.874;2.332;2024-01-07T02:10:17;101310.77;;;25.23;41.43
39275;BME280;24980;48.874;2.332;2024-01-07T02:12:47;101314.20;;;25.26;41.38
39275;BME280;24980;48.874;2.332;2024-01-07T02:15:17;101314.55;;;25.25;41.37
39275;BME280;24980;48.874;2.332;2024-01-07T02:17:47;101312.66;;;25.21;41.39
39275;BME280;24980;48.874;2.332;2024-01-07T02:20:18;101313.13;;;25.19;41.39
39275;BME280;24980;48.874;2.332;2024-01-07T02:22:48;101314.16;;;25.18;41.42
39275;BME280;24980;48.874;2.332;2024-01-07T02:25:18;101314.77;;;25.17;41.47
39275;BME280;24980;48.874;2.332;2024-01-07T02:27:48;101316.10;;;25.20;41.48
39275;BME280;24980;48.874;2.332;2024-01-07T02:30:19;101319.37;;;25.21;41.48
39275;BME280;24980;48.874;2.332;2024-01-07T02:32:49;101311.47;;;25.22;41.46
39275;BME280;24980;48.874;2.332;2024-01-07T02:35:23;101314.27;;;25.21;41.46
39275;BME280;24980;48.874;2.332;2024-01-07T02:37:55;101313.66;;;25.23;41.44
39275;BME280;24980;48.874;2.332;2024-01-07T02:40:21;101307.15;;;25.21;41.43
39275;BME280;24980;48.874;2.332;2024-01-07T02:42:51;101318.30;;;25.20;41.44
39275;BME280;24980;48.874;2.332;2024-01-07T02:45:22;101318.53;;;25.17;41.47
39275;BME280;24980;48.874;2.332;2024-01-07T02:47:52;101319.06;;;25.15;41.49
39275;BME280;24980;48.874;2.332;2024-01-07T02:50:23;101314.74;;;25.14;41.50
39275;BME280;24980;48.874;2.332;2024-01-07T02:52:54;101316.42;;;25.15;41.50
39275;BME280;24980;48.874;2.332;2024-01-07T02:55:25;101319.59;;;25.18;41.48
39275;BME280;24980;48.874;2.332;2024-01-07T02:57:54;101317.12;;;25.20;41.46
39275;BME280;24980;48.874;2.332;2024-01-07T03:00:25;101318.60;;;25.21;41.42
39275;BME280;24980;48.874;2.332;2024-01-07T03:02:55;101320.55;;;25.21;41.39
39275;BME280;24980;48.874;2.332;2024-01-07T03:05:26;101320.61;;;25.18;41.41
39275;BME280;24980;48.874;2.332;2024-01-07T03:07:57;101320.53;;;25.17;41.41
39275;BME280;24980;48.874;2.332;2024-01-07T03:10:27;101319.42;;;25.18;41.40
39275;BME280;24980;48.874;2.332;2024-01-07T03:12:59;101328.41;;;25.20;41.38
39275;BME280;24980;48.874;2.332;2024-01-07T03:15:32;101329.78;;;25.23;41.35
39275;BME280;24980;48.874;2.332;2024-01-07T03:17:59;101333.72;;;25.25;41.32
39275;BME280;24980;48.874;2.332;2024-01-07T03:20:30;101326.66;;;25.27;41.28
39275;BME280;24980;48.874;2.332;2024-01-07T03:23:01;101329.03;;;25.27;41.25
39275;BME280;24980;48.874;2.332;2024-01-07T03:25:31;101327.02;;;25.25;41.25
39275;BME280;24980;48.874;2.332;2024-01-07T03:28:05;101330.75;;;25.25;41.25
39275;BME280;24980;48.874;2.332;2024-01-07T03:30:33;101325.31;;;25.26;41.22
39275;BME280;24980;48.874;2.332;2024-01-07T03:33:04;101321.83;;;25.26;41.20
39275;BME280;24980;48.874;2.332;2024-01-07T03:35:34;101328.73;;;25.28;41.16
39275;BME280;24980;48.874;2.332;2024-01-07T03:38:05;101326.61;;;25.28;41.12
39275;BME280;24980;48.874;2.332;2024-01-07T03:40:36;101330.62;;;25.24;41.15
39275;BME280;24980;48.874;2.332;2024-01-07T03:43:06;101332.25;;;25.21;41.14
39275;BME280;24980;48.874;2.332;2024-01-07T03:45:37;101332.68;;;25.22;41.13
39275;BME280;24980;48.874;2.332;2024-01-07T03:48:07;101340.30;;;25.24;41.11
39275;BME280;24980;48.874;2.332;2024-01-07T03:50:40;101336.90;;;25.24;41.12
39275;BME280;24980;48.874;2.332;2024-01-07T03:53:09;101333.97;;;25.25;41.09
39275;BME280;24980;48.874;2.332;2024-01-07T03:55:38;101340.25;;;25.25;41.09
39275;BME280;24980;48.874;2.332;2024-01-07T03:58:09;101340.16;;;25.25;41.07
39275;BME280;24980;48.874;2.332;2024-01-07T04:00:42;101338.21;;;25.25;41.06
39275;BME280;24980;48.874;2.332;2024-01-07T04:03:10;101337.16;;;25.23;41.07
39275;BME280;24980;48.874;2.332;2024-01-07T04:05:43;101340.22;;;25.22;41.09
39275;BME280;24980;48.874;2.332;2024-01-07T04:08:14;101340.22;;;25.23;41.08
39275;BME280;24980;48.874;2.332;2024-01-07T04:10:42;101341.31;;;25.24;41.09
39275;BME280;24980;48.874;2.332;2024-01-07T04:13:12;101340.89;;;25.23;41.09
39275;BME280;24980;48.874;2.332;2024-01-07T04:15:43;101339.41;;;25.25;41.07
39275;BME280;24980;48.874;2.332;2024-01-07T04:18:14;101343.03;;;25.27;41.05
39275;BME280;24980;48.874;2.332;2024-01-07T04:20:43;101348.42;;;25.28;41.03
39275;BME280;24980;48.874;2.332;2024-01-07T04:23:14;101350.62;;;25.29;40.99
39275;BME280;24980;48.874;2.332;2024-01-07T04:25:47;101346.00;;;25.27;40.99
39275;BME280;24980;48.874;2.332;2024-01-07T04:28:22;101346.60;;;25.26;40.99
39275;BME280;24980;48.874;2.332;2024-01-07T04:30:48;101344.80;;;25.23;41.01
39275;BME280;24980;48.874;2.332;2024-01-07T04:33:15;101347.17;;;25.23;41.01
39275;BME280;24980;48.874;2.332;2024-01-07T04:35:46;101349.29;;;25.24;41.01
39275;BME280;24980;48.874;2.332;2024-01-07T04:38:16;101354.59;;;25.24;41.02
39275;BME280;24980;48.874;2.332;2024-01-07T04:40:47;101353.40;;;25.25;41.04
39275;BME280;24980;48.874;2.332;2024-01-07T04:43:17;101355.85;;;25.26;41.06
39275;BME280;24980;48.874;2.332;2024-01-07T04:45:47;101356.23;;;25.28;41.06
39275;BME280;24980;48.874;2.332;2024-01-07T04:48:17;101354.11;;;25.28;41.05
39275;BME280;24980;48.874;2.332;2024-01-07T04:50:48;101356.52;;;25.27;41.06
39275;BME280;24980;48.874;2.332;2024-01-07T04:53:18;101355.17;;;25.26;41.02
39275;BME280;24980;48.874;2.332;2024-01-07T04:55:48;101354.51;;;25.24;41.03
39275;BME280;24980;48.874;2.332;2024-01-07T04:58:18;101352.69;;;25.23;41.02
39275;BME280;24980;48.874;2.332;2024-01-07T05:00:49;101356.59;;;25.23;41.01
39275;BME280;24980;48.874;2.332;2024-01-07T05:03:19;101358.47;;;25.22;41.01
39275;BME280;24980;48.874;2.332;2024-01-07T05:05:49;101365.92;;;25.23;41.00
39275;BME280;24980;48.874;2.332;2024-01-07T05:08:20;101364.41;;;25.22;41.00
39275;BME280;24980;48.874;2.332;2024-01-07T05:13:19;101367.78;;;25.24;40.99
39275;BME280;24980;48.874;2.332;2024-01-07T05:15:49;101372.83;;;25.25;40.98
39275;BME280;24980;48.874;2.332;2024-01-07T05:18:24;101374.36;;;25.25;40.96
39275;BME280;24980;48.874;2.332;2024-01-07T05:20:50;101370.87;;;25.26;40.93
39275;BME280;24980;48.874;2.332;2024-01-07T05:23:20;101368.83;;;25.26;40.92
39275;BME280;24980;48.874;2.332;2024-01-07T05:25:50;101372.06;;;25.25;40.92
39275;BME280;24980;48.874;2.332;2024-01-07T05:28:21;101374.28;;;25.24;40.94
39275;BME280;24980;48.874;2.332;2024-01-07T05:30:51;101380.09;;;25.23;40.99
39275;BME280;24980;48.874;2.332;2024-01-07T05:33:21;101375.00;;;25.23;41.00
39275;BME280;24980;48.874;2.332;2024-01-07T05:35:51;101374.77;;;25.21;41.05
39275;BME280;24980;48.874;2.332;2024-01-07T05:38:22;101382.66;;;25.21;41.09
39275;BME280;24980;48.874;2.332;2024-01-07T05:40:52;101386.50;;;25.24;41.03
39275;BME280;24980;48.874;2.332;2024-01-07T05:43:22;101384.95;;;25.26;41.00
39275;BME280;24980;48.874;2.332;2024-01-07T05:45:52;101385.81;;;25.24;40.97
39275;BME280;24980;48.874;2.332;2024-01-07T05:48:23;101394.34;;;25.22;40.99
39275;BME280;24980;48.874;2.332;2024-01-07T05:50:53;101383.66;;;25.22;40.95
39275;BME280;24980;48.874;2.332;2024-01-07T05:53:23;101383.19;;;25.24;40.91
39275;BME280;24980;48.874;2.332;2024-01-07T05:55:53;101389.89;;;25.24;40.89
39275;BME280;24980;48.874;2.332;2024-01-07T05:58:24;101394.71;;;25.26;40.84
39275;BME280;24980;48.874;2.332;2024-01-07T06:00:54;101397.30;;;25.27;40.82
39275;BME280;24980;48.874;2.332;2024-01-07T06:03:24;101394.91;;;25.29;40.79
39275;BME280;24980;48.874;2.332;2024-01-07T06:05:54;101397.11;;;25.29;40.78
39275;BME280;24980;48.874;2.332;2024-01-07T06:08:25;101400.56;;;25.26;40.81
39275;BME280;24980;48.874;2.332;2024-01-07T06:10:55;101407.27;;;25.25;40.82
39275;BME280;24980;48.874;2.332;2024-01-07T06:13:26;101411.05;;;25.24;40.84
39275;BME280;24980;48.874;2.332;2024-01-07T06:15:57;101408.34;;;25.24;40.84
39275;BME280;24980;48.874;2.332;2024-01-07T06:18:27;101405.03;;;25.23;40.83
39275;BME280;24980;48.874;2.332;2024-01-07T06:20:57;101405.16;;;25.24;40.81
39275;BME280;24980;48.874;2.332;2024-01-07T06:23:27;101402.78;;;25.24;40.80
39275;BME280;24980;48.874;2.332;2024-01-07T06:25:58;101403.76;;;25.23;40.82
39275;BME280;24980;48.874;2.332;2024-01-07T06:28:28;101403.34;;;25.22;40.83
39275;BME280;24980;48.874;2.332;2024-01-07T06:30:59;101402.62;;;25.24;40.82
39275;BME280;24980;48.874;2.332;2024-01-07T06:33:30;101401.84;;;25.26;40.82
39275;BME280;24980;48.874;2.332;2024-01-07T06:36:00;101396.14;;;25.27;40.81
39275;BME280;24980;48.874;2.332;2024-01-07T06:38:36;101407.94;;;25.26;40.79
39275;BME280;24980;48.874;2.332;2024-01-07T06:41:01;101411.51;;;25.26;40.79
39275;BME280;24980;48.874;2.332;2024-01-07T06:43:32;101409.73;;;25.25;40.80
39275;BME280;24980;48.874;2.332;2024-01-07T06:46:03;101407.45;;;25.25;40.77
39275;BME280;24980;48.874;2.332;2024-01-07T06:48:35;101419.08;;;25.24;40.78
39275;BME280;24980;48.874;2.332;2024-01-07T06:51:11;101417.62;;;25.25;40.76
39275;BME280;24980;48.874;2.332;2024-01-07T06:53:33;101416.34;;;25.25;40.76
39275;BME280;24980;48.874;2.332;2024-01-07T06:56:04;101415.11;;;25.27;40.75
39275;BME280;24980;48.874;2.332;2024-01-07T06:58:34;101428.25;;;25.29;40.74
39275;BME280;24980;48.874;2.332;2024-01-07T07:01:06;101431.80;;;25.25;40.78
39275;BME280;24980;48.874;2.332;2024-01-07T07:03:34;101434.64;;;25.24;40.78
39275;BME280;24980;48.874;2.332;2024-01-07T07:06:05;101436.59;;;25.23;40.80
39275;BME280;24980;48.874;2.332;2024-01-07T07:08:35;101438.30;;;25.23;40.81
39275;BME280;24980;48.874;2.332;2024-01-07T07:11:05;101438.38;;;25.23;40.81
39275;BME280;24980;48.874;2.332;2024-01-07T07:13:35;101439.52;;;25.25;40.78
39275;BME280;24980;48.874;2.332;2024-01-07T07:16:06;101444.77;;;25.27;40.76
39275;BME280;24980;48.874;2.332;2024-01-07T07:18:36;101446.89;;;25.25;40.75
39275;BME280;24980;48.874;2.332;2024-01-07T07:21:08;101444.77;;;25.26;40.72
39275;BME280;24980;48.874;2.332;2024-01-07T07:23:38;101452.16;;;25.25;40.71
39275;BME280;24980;48.874;2.332;2024-01-07T07:26:07;101457.67;;;25.26;40.70
39275;BME280;24980;48.874;2.332;2024-01-07T07:28:37;101464.78;;;25.27;40.69
39275;BME280;24980;48.874;2.332;2024-01-07T07:31:10;101461.44;;;25.28;40.65
39275;BME280;24980;48.874;2.332;2024-01-07T07:33:40;101465.17;;;25.27;40.66
39275;BME280;24980;48.874;2.332;2024-01-07T07:36:08;101465.80;;;25.27;40.65
39275;BME280;24980;48.874;2.332;2024-01-07T07:38:38;101465.42;;;25.28;40.62
39275;BME280;24980;48.874;2.332;2024-01-07T07:41:08;101470.67;;;25.30;40.58
39275;BME280;24980;48.874;2.332;2024-01-07T07:43:39;101464.82;;;25.29;40.58
39275;BME280;24980;48.874;2.332;2024-01-07T07:46:09;101473.31;;;25.28;40.57
39275;BME280;24980;48.874;2.332;2024-01-07T07:48:39;101471.16;;;25.26;40.61
39275;BME280;24980;48.874;2.332;2024-01-07T07:51:10;101464.14;;;25.28;40.56
39275;BME280;24980;48.874;2.332;2024-01-07T07:53:42;101472.04;;;25.28;40.56
39275;BME280;24980;48.874;2.332;2024-01-07T07:56:24;101470.21;;;25.30;40.55
39275;BME280;24980;48.874;2.332;2024-01-07T07:58:40;101475.25;;;25.33;40.50
39275;BME280;24980;48.874;2.332;2024-01-07T08:01:10;101475.58;;;25.34;40.47
39275;BME280;24980;48.874;2.332;2024-01-07T08:03:40;101486.48;;;25.32;40.47
39275;BME280;24980;48.874;2.332;2024-01-07T08:06:12;101489.01;;;25.29;40.50
39275;BME280;24980;48.874;2.332;2024-01-07T08:08:40;101492.31;;;25.29;40.50
39275;BME280;24980;48.874;2.332;2024-01-07T08:11:11;101492.06;;;25.28;40.52
39275;BME280;24980;48.874;2.332;2024-01-07T08:13:41;101500.22;;;25.27;40.55
39275;BME280;24980;48.874;2.332;2024-01-07T08:16:12;101503.64;;;25.30;40.52
39275;BME280;24980;48.874;2.332;2024-01-07T08:18:41;101509.02;;;25.30;40.51
39275;BME280;24980;48.874;2.332;2024-01-07T08:21:11;101513.05;;;25.31;40.47
39275;BME280;24980;48.874;2.332;2024-01-07T08:23:41;101502.78;;;25.32;40.48
39275;BME280;24980;48.874;2.332;2024-01-07T08:26:11;101507.45;;;25.33;40.47
39275;BME280;24980;48.874;2.332;2024-01-07T08:28:42;101514.74;;;25.33;40.47
39275;BME280;24980;48.874;2.332;2024-01-07T08:31:13;101513.17;;;25.34;40.44
39275;BME280;24980;48.874;2.332;2024-01-07T08:33:48;101511.43;;;25.33;40.45
39275;BME280;24980;48.874;2.332;2024-01-07T08:36:14;101507.49;;;25.33;40.42
39275;BME280;24980;48.874;2.332;2024-01-07T08:38:44;101513.17;;;25.35;40.40
39275;BME280;24980;48.874;2.332;2024-01-07T08:41:17;101520.97;;;25.35;40.39
39275;BME280;24980;48.874;2.332;2024-01-07T08:43:47;101516.98;;;25.34;40.35
39275;BME280;24980;48.874;2.332;2024-01-07T08:46:16;101520.59;;;25.32;40.36
39275;BME280;24980;48.874;2.332;2024-01-07T08:48:45;101521.02;;;25.32;40.36
39275;BME280;24980;48.874;2.332;2024-01-07T08:51:16;101516.78;;;25.32;40.36
39275;BME280;24980;48.874;2.332;2024-01-07T08:53:47;101520.77;;;25.33;40.34
39275;BME280;24980;48.874;2.332;2024-01-07T08:56:16;101523.44;;;25.35;40.32
39275;BME280;24980;48.874;2.332;2024-01-07T08:58:46;101528.53;;;25.34;40.30
39275;BME280;24980;48.874;2.332;2024-01-07T09:01:16;101529.12;;;25.35;40.29
39275;BME280;24980;48.874;2.332;2024-01-07T09:03:46;101532.30;;;25.32;40.30
39275;BME280;24980;48.874;2.332;2024-01-07T09:06:19;101536.13;;;25.31;40.32
39275;BME280;24980;48.874;2.332;2024-01-07T09:08:47;101528.06;;;25.33;40.30
39275;BME280;24980;48.874;2.332;2024-01-07T09:11:20;101540.84;;;25.34;40.27
39275;BME280;24980;48.874;2.332;2024-01-07T09:13:47;101539.91;;;25.33;40.26
39275;BME280;24980;48.874;2.332;2024-01-07T09:16:18;101536.67;;;25.35;40.22
39275;BME280;24980;48.874;2.332;2024-01-07T09:18:48;101544.72;;;25.36;40.21
39275;BME280;24980;48.874;2.332;2024-01-07T09:21:18;101541.08;;;25.35;40.19
39275;BME280;24980;48.874;2.332;2024-01-07T09:23:48;101540.80;;;25.31;40.20
39275;BME280;24980;48.874;2.332;2024-01-07T09:26:19;101544.92;;;25.29;40.21
39275;BME280;24980;48.874;2.332;2024-01-07T09:28:49;101552.77;;;25.30;40.20
39275;BME280;24980;48.874;2.332;2024-01-07T09:31:19;101550.14;;;25.31;40.19
39275;BME280;24980;48.874;2.332;2024-01-07T09:33:49;101557.77;;;25.32;40.17
39275;BME280;24980;48.874;2.332;2024-01-07T09:36:19;101554.80;;;25.31;40.17
39275;BME280;24980;48.874;2.332;2024-01-07T09:38:49;101556.50;;;25.32;40.16
39275;BME280;24980;48.874;2.332;2024-01-07T09:41:21;101561.12;;;25.29;40.17
39275;BME280;24980;48.874;2.332;2024-01-07T09:43:51;101565.62;;;25.29;40.18
39275;BME280;24980;48.874;2.332;2024-01-07T09:46:21;101564.53;;;25.28;40.18
39275;BME280;24980;48.874;2.332;2024-01-07T09:48:51;101567.83;;;25.30;40.16
39275;BME280;24980;48.874;2.332;2024-01-07T09:51:22;101567.20;;;25.30;40.16
39275;BME280;24980;48.874;2.332;2024-01-07T09:54:02;101565.79;;;25.30;40.13
39275;BME280;24980;48.874;2.332;2024-01-07T09:56:26;101564.56;;;25.30;40.11
39275;BME280;24980;48.874;2.332;2024-01-07T09:58:53;101569.48;;;25.31;40.08
39275;BME280;24980;48.874;2.332;2024-01-07T10:01:24;101571.00;;;25.32;40.06
39275;BME280;24980;48.874;2.332;2024-01-07T10:03:54;101569.83;;;25.31;40.08
39275;BME280;24980;48.874;2.332;2024-01-07T10:06:25;101572.19;;;25.32;40.06
39275;BME280;24980;48.874;2.332;2024-01-07T10:08:56;101568.33;;;25.34;40.03
39275;BME280;24980;48.874;2.332;2024-01-07T10:11:26;101569.26;;;25.34;40.00
39275;BME280;24980;48.874;2.332;2024-01-07T10:14:00;101571.94;;;25.32;40.00
39275;BME280;24980;48.874;2.332;2024-01-07T10:16:33;101571.13;;;25.30;40.02
39275;BME280;24980;48.874;2.332;2024-01-07T10:18:58;101581.32;;;25.29;40.00
39275;BME280;24980;48.874;2.332;2024-01-07T10:21:28;101583.11;;;25.28;40.01
39275;BME280;24980;48.874;2.332;2024-01-07T10:24:11;101581.64;;;25.24;40.02
39275;BME280;24980;48.874;2.332;2024-01-07T10:26:30;101588.02;;;25.14;40.09
39275;BME280;24980;48.874;2.332;2024-01-07T10:29:00;101581.49;;;25.07;40.16
39275;BME280;24980;48.874;2.332;2024-01-07T10:31:34;101586.84;;;25.05;40.21
39275;BME280;24980;48.874;2.332;2024-01-07T10:34:02;101590.62;;;25.03;40.24
39275;BME280;24980;48.874;2.332;2024-01-07T10:36:32;101590.03;;;25.01;40.25
39275;BME280;24980;48.874;2.332;2024-01-07T10:39:03;101589.65;;;25.00;40.25
39275;BME280;24980;48.874;2.332;2024-01-07T10:41:37;101587.99;;;24.97;40.26
39275;BME280;24980;48.874;2.332;2024-01-07T10:44:04;101590.12;;;24.96;40.29
39275;BME280;24980;48.874;2.332;2024-01-07T10:46:35;101593.34;;;24.97;40.28
39275;BME280;24980;48.874;2.332;2024-01-07T10:49:19;101590.62;;;24.98;40.26
39275;BME280;24980;48.874;2.332;2024-01-07T10:51:36;101588.59;;;24.96;40.26
39275;BME280;24980;48.874;2.332;2024-01-07T10:54:07;101590.80;;;24.95;40.27
39275;BME280;24980;48.874;2.332;2024-01-07T10:56:45;101589.95;;;24.96;40.24
39275;BME280;24980;48.874;2.332;2024-01-07T10:59:08;101588.80;;;24.94;40.23
39275;BME280;24980;48.874;2.332;2024-01-07T11:01:38;101586.90;;;24.90;40.26
39275;BME280;24980;48.874;2.332;2024-01-07T11:04:15;101585.96;;;24.91;40.26
39275;BME280;24980;48.874;2.332;2024-01-07T11:06:48;101586.69;;;24.93;40.25
39275;BME280;24980;48.874;2.332;2024-01-07T11:09:36;101589.83;;;24.93;40.23
39275;BME280;24980;48.874;2.332;2024-01-07T11:11:40;101585.58;;;24.94;40.19
39275;BME280;24980;48.874;2.332;2024-01-07T11:16:42;101592.07;;;24.96;40.14
39275;BME280;24980;48.874;2.332;2024-01-07T11:19:14;101591.02;;;24.93;40.17
39275;BME280;24980;48.874;2.332;2024-01-07T11:21:41;101595.59;;;24.93;40.19
39275;BME280;24980;48.874;2.332;2024-01-07T11:24:37;101599.91;;;24.94;40.22
39275;BME280;24980;48.874;2.332;2024-01-07T11:26:42;101595.20;;;24.98;40.24
39275;BME280;24980;48.874;2.332;2024-01-07T11:29:12;101593.55;;;24.99;40.26
39275;BME280;24980;48.874;2.332;2024-01-07T11:31:43;101596.77;;;24.99;40.24
39275;BME280;24980;48.874;2.332;2024-01-07T11:36:43;101590.79;;;25.03;40.25
39275;BME280;24980;48.874;2.332;2024-01-07T11:39:13;101591.73;;;25.01;40.26
39275;BME280;24980;48.874;2.332;2024-01-07T11:41:46;101591.55;;;24.98;40.28
39275;BME280;24980;48.874;2.332;2024-01-07T11:44:13;101596.48;;;24.97;40.29
39275;BME280;24980;48.874;2.332;2024-01-07T11:46:43;101601.40;;;24.96;40.30
39275;BME280;24980;48.874;2.332;2024-01-07T11:49:14;101595.12;;;24.98;40.26
39275;BME280;24980;48.874;2.332;2024-01-07T11:51:44;101602.11;;;25.01;40.26
39275;BME280;24980;48.874;2.332;2024-01-07T11:54:14;101599.36;;;25.02;40.22
39275;BME280;24980;48.874;2.332;2024-01-07T11:56:47;101605.42;;;25.01;40.22
39275;BME280;24980;48.874;2.332;2024-01-07T11:59:18;101604.31;;;25.01;40.21
39275;BME280;24980;48.874;2.332;2024-01-07T12:01:46;101603.72;;;25.01;40.21
39275;BME280;24980;48.874;2.332;2024-01-07T12:04:16;101594.48;;;24.98;40.24
39275;BME280;24980;48.874;2.332;2024-01-07T12:06:46;101596.09;;;24.99;40.23
39275;BME280;24980;48.874;2.332;2024-01-07T12:09:23;101596.94;;;25.00;40.20
39275;BME280;24980;48.874;2.332;2024-01-07T12:11:54;101594.09;;;24.98;40.20
39275;BME280;24980;48.874;2.332;2024-01-07T12:14:18;101596.73;;;24.96;40.19
39275;BME280;24980;48.874;2.332;2024-01-07T12:16:48;101601.66;;;24.96;40.18
39275;BME280;24980;48.874;2.332;2024-01-07T12:19:18;101595.08;;;24.94;40.17
39275;BME280;24980;48.874;2.332;2024-01-07T12:21:48;101591.02;;;24.92;40.18
39275;BME280;24980;48.874;2.332;2024-01-07T12:24:18;101590.25;;;24.92;40.18
39275;BME280;24980;48.874;2.332;2024-01-07T12:26:48;101591.09;;;24.93;40.16
39275;BME280;24980;48.874;2.332;2024-01-07T12:29:18;101583.89;;;24.92;40.14
39275;BME280;24980;48.874;2.332;2024-01-07T12:31:51;101590.04;;;24.90;40.13
39275;BME280;24980;48.874;2.332;2024-01-07T12:34:21;101584.73;;;24.87;40.13
39275;BME280;24980;48.874;2.332;2024-01-07T12:36:50;101583.05;;;24.86;40.14
39275;BME280;24980;48.874;2.332;2024-01-07T12:39:20;101586.27;;;24.86;40.15
39275;BME280;24980;48.874;2.332;2024-01-07T12:41:50;101588.09;;;24.89;40.16
39275;BME280;24980;48.874;2.332;2024-01-07T12:44:20;101594.62;;;24.90;40.14
39275;BME280;24980;48.874;2.332;2024-01-07T12:46:51;101584.56;;;24.92;40.10
39275;BME280;24980;48.874;2.332;2024-01-07T12:49:21;101590.29;;;24.91;40.10
39275;BME280;24980;48.874;2.332;2024-01-07T12:51:51;101594.52;;;24.92;40.08
39275;BME280;24980;48.874;2.332;2024-01-07T12:54:21;101594.37;;;24.89;40.09
39275;BME280;24980;48.874;2.332;2024-01-07T12:56:51;101594.88;;;24.88;40.09
39275;BME280;24980;48.874;2.332;2024-01-07T12:59:21;101601.14;;;24.90;40.07
39275;BME280;24980;48.874;2.332;2024-01-07T13:01:51;101601.02;;;24.93;40.03
39275;BME280;24980;48.874;2.332;2024-01-07T13:04:21;101595.59;;;24.94;40.01
39275;BME280;24980;48.874;2.332;2024-01-07T13:06:51;101600.16;;;24.94;40.00
39275;BME280;24980;48.874;2.332;2024-01-07T13:09:21;101599.28;;;24.95;40.00
39275;BME280;24980;48.874;2.332;2024-01-07T13:11:51;101598.05;;;24.94;39.98
39275;BME280;24980;48.874;2.332;2024-01-07T13:14:22;101596.23;;;24.90;40.00